Time;durP1;ratioP1;P1;durP2;ratioP2;P2;SDS_P1;SDS_P2;PMS_P1;PMS_P2;Temp;Humidity;BMP_temperature;BMP_pressure;BME280_temperature;BME280_humidity;BME280_pressure;Samples;Min_cycle;Max_cycle;Signal;HPM_P1;HPM_P2
2022/10/07 00:00:24;;;;;;;0.10;0.10;;;;;;;6.10;100.00;97776.47;5041170;28;20045;-74
2022/10/07 00:03:10;;;;;;;0.13;0.10;;;;;;;6.14;100.00;97773.22;5041857;28;20049;-75
2022/10/07 00:06:15;;;;;;;0.25;0.10;;;;;;;5.98;100.00;97772.63;5039434;28;20485;-74
2022/10/07 00:09:01;;;;;;;0.05;0.05;;;;;;;5.94;100.00;97772.19;5031455;28;20041;-76
2022/10/07 00:11:47;;;;;;;0.10;0.10;;;;;;;6.07;100.00;97766.19;5043566;28;20074;-73
2022/10/07 00:14:33;;;;;;;0.10;0.10;;;;;;;5.93;100.00;97772.41;5039513;28;20049;-75
2022/10/07 00:17:18;;;;;;;0.10;0.10;;;;;;;5.77;100.00;97771.56;5042130;28;20043;-75
2022/10/07 00:20:05;;;;;;;0.10;0.10;;;;;;;5.91;100.00;97755.78;5042120;28;20152;-75
2022/10/07 00:22:52;;;;;;;0.28;0.10;;;;;;;6.04;100.00;97750.63;5044745;28;20044;-74
2022/10/07 00:25:38;;;;;;;0.10;0.10;;;;;;;6.14;100.00;97751.97;5034646;28;20131;-73
2022/10/07 00:28:24;;;;;;;0.10;0.10;;;;;;;5.99;100.00;97747.69;5041305;28;20044;-73
2022/10/07 00:31:16;;;;;;;0.10;0.10;;;;;;;5.94;100.00;97747.47;5012241;28;20045;-73
2022/10/07 00:34:03;;;;;;;0.10;0.10;;;;;;;5.89;100.00;97750.63;5047047;28;20040;-73
2022/10/07 00:36:49;;;;;;;0.28;0.10;;;;;;;5.73;100.00;97742.91;5047989;28;20044;-74
2022/10/07 00:39:35;;;;;;;0.10;0.10;;;;;;;5.68;100.00;97743.47;5046774;28;20524;-73
2022/10/07 00:42:21;;;;;;;0.10;0.10;;;;;;;5.69;100.00;97747.78;5044958;28;20551;-73
2022/10/07 00:45:15;;;;;;;0.10;0.10;;;;;;;5.86;100.00;97743.06;5043296;28;20075;-74
2022/10/07 00:48:02;;;;;;;0.15;0.10;;;;;;;5.99;100.00;97731.75;5031352;28;20466;-73
2022/10/07 00:50:51;;;;;;;0.10;0.10;;;;;;;6.04;100.00;97735.50;5040379;28;20049;-74
2022/10/07 00:53:39;;;;;;;0.10;0.10;;;;;;;5.82;100.00;97728.50;5049173;28;20399;-73
2022/10/07 00:56:26;;;;;;;0.10;0.10;;;;;;;5.58;100.00;97735.78;5024053;28;20338;-73
2022/10/07 00:59:14;;;;;;;0.13;0.10;;;;;;;5.62;100.00;97732.75;5036383;28;20063;-74
2022/10/07 01:02:00;;;;;;;0.10;0.10;;;;;;;5.73;100.00;97738.41;5035314;28;20044;-73
2022/10/07 01:04:47;;;;;;;0.20;0.20;;;;;;;5.72;100.00;97726.13;5045357;28;20056;-74
2022/10/07 01:07:33;;;;;;;0.13;0.13;;;;;;;5.70;100.00;97727.34;5046237;28;20044;-74
2022/10/07 01:10:20;;;;;;;0.10;0.10;;;;;;;5.58;100.00;97721.69;5038453;28;20459;-74
2022/10/07 01:13:32;;;;;;;0.10;0.10;;;;;;;5.41;100.00;97713.09;5043256;28;20052;-74
2022/10/07 01:16:34;;;;;;;0.10;0.10;;;;;;;5.44;100.00;97718.03;5042959;28;20139;-74
2022/10/07 01:19:27;;;;;;;0.10;0.10;;;;;;;5.40;100.00;97718.59;5033814;28;20568;-74
2022/10/07 01:22:49;;;;;;;0.40;0.20;;;;;;;5.40;100.00;97711.47;5032438;28;20047;-74
2022/10/07 01:25:37;;;;;;;;;;;;;;;5.48;100.00;97707.88;5021878;28;20165;-74
2022/10/07 01:28:31;;;;;;;0.10;0.10;;;;;;;5.45;100.00;97703.78;5044857;28;20324;-73
2022/10/07 01:31:22;;;;;;;0.10;0.10;;;;;;;5.54;100.00;97694.69;5041827;28;20040;-74
2022/10/07 01:34:09;;;;;;;0.10;0.10;;;;;;;5.52;100.00;97693.19;5043436;28;20039;-74
2022/10/07 01:36:57;;;;;;;0.10;0.10;;;;;;;5.47;100.00;97680.50;5043466;28;20041;-75
2022/10/07 01:39:57;;;;;;;0.10;0.10;;;;;;;5.48;100.00;97678.69;5040734;28;20045;-74
2022/10/07 01:42:45;;;;;;;0.10;0.10;;;;;;;5.56;100.00;97673.25;5032427;28;20056;-74
2022/10/07 01:45:37;;;;;;;0.10;0.10;;;;;;;5.65;100.00;97671.31;5036098;28;20325;-74
2022/10/07 01:48:23;;;;;;;0.10;0.10;;;;;;;5.69;100.00;97677.91;5044753;28;20524;-75
2022/10/07 01:51:09;;;;;;;0.10;0.10;;;;;;;5.67;100.00;97663.97;5041465;28;20044;-75
2022/10/07 01:54:14;;;;;;;0.10;0.10;;;;;;;5.65;100.00;97668.66;5045037;28;20046;-75
2022/10/07 01:57:12;;;;;;;0.10;0.10;;;;;;;5.56;100.00;97659.97;5033069;28;20531;-75
2022/10/07 01:59:58;;;;;;;0.15;0.10;;;;;;;5.49;100.00;97659.91;5028591;28;20041;-75
2022/10/07 02:02:56;;;;;;;0.20;0.10;;;;;;;5.54;100.00;97662.81;5023004;28;20048;-74
2022/10/07 02:06:23;;;;;;;0.10;0.10;;;;;;;5.48;100.00;97662.75;5034074;28;20063;-75
2022/10/07 02:09:36;;;;;;;0.10;0.10;;;;;;;5.46;100.00;97646.19;5038982;28;20642;-74
2022/10/07 02:12:35;;;;;;;0.10;0.10;;;;;;;5.38;100.00;97646.31;5043277;28;20040;-74
2022/10/07 02:15:26;;;;;;;0.17;0.10;;;;;;;5.31;100.00;97641.72;5019137;28;20044;-75
2022/10/07 02:18:15;;;;;;;;;;;;;;;5.40;100.00;97644.28;5032969;28;20033;-74
2022/10/07 02:21:05;;;;;;;0.38;0.10;;;;;;;5.37;100.00;97626.03;5033076;28;19924;-74
2022/10/07 02:23:53;;;;;;;0.10;0.10;;;;;;;5.33;100.00;97630.91;5034957;28;20120;-75
2022/10/07 02:26:42;;;;;;;0.10;0.10;;;;;;;5.26;100.00;97625.53;5047821;28;20436;-74
2022/10/07 02:29:32;;;;;;;0.13;0.13;;;;;;;5.35;100.00;97630.72;5042092;28;20496;-74
2022/10/07 02:32:22;;;;;;;0.10;0.10;;;;;;;5.37;100.00;97620.72;5027226;28;20037;-74
2022/10/07 02:35:24;;;;;;;0.10;0.10;;;;;;;5.38;100.00;97609.13;5019337;28;20075;-75
2022/10/07 02:38:13;;;;;;;0.10;0.10;;;;;;;5.34;100.00;97616.63;5033203;28;20629;-75
2022/10/07 02:41:30;;;;;;;0.10;0.10;;;;;;;5.19;100.00;97608.72;5034984;28;20097;-74
2022/10/07 02:44:24;;;;;;;0.17;0.13;;;;;;;5.27;100.00;97605.13;5039764;28;20068;-74
2022/10/07 02:47:24;;;;;;;0.10;0.10;;;;;;;5.35;100.00;97607.66;5035728;28;20106;-75
2022/10/07 02:50:16;;;;;;;0.10;0.10;;;;;;;5.12;100.00;97610.47;5030881;28;20048;-75
2022/10/07 02:53:03;;;;;;;0.10;0.10;;;;;;;5.07;100.00;97610.22;5034141;28;20040;-74
2022/10/07 02:55:51;;;;;;;0.10;0.10;;;;;;;5.00;100.00;97606.66;5031987;28;20044;-74
2022/10/07 02:58:44;;;;;;;0.38;0.20;;;;;;;5.08;100.00;97611.84;5042311;28;20190;-74
2022/10/07 03:01:36;;;;;;;0.10;0.10;;;;;;;5.12;100.00;97606.97;5041111;28;20051;-74
2022/10/07 03:04:22;;;;;;;0.10;0.10;;;;;;;5.10;100.00;97599.22;5032002;28;20036;-74
2022/10/07 03:07:11;;;;;;;0.10;0.10;;;;;;;5.09;100.00;97591.44;5027295;28;20040;-75
2022/10/07 03:09:57;;;;;;;0.10;0.10;;;;;;;5.11;100.00;97600.84;5031134;28;20148;-74
2022/10/07 03:12:43;;;;;;;0.10;0.10;;;;;;;5.17;100.00;97596.63;5028472;28;20382;-75
2022/10/07 03:15:30;;;;;;;0.10;0.10;;;;;;;5.15;100.00;97596.00;5034847;28;20051;-75
2022/10/07 03:18:27;;;;;;;0.10;0.10;;;;;;;5.18;100.00;97593.78;5012145;28;20124;-75
2022/10/07 03:21:35;;;;;;;0.20;0.20;;;;;;;5.23;100.00;97596.72;5027401;28;20071;-75
2022/10/07 03:24:22;;;;;;;0.20;0.10;;;;;;;5.17;100.00;97589.50;5019495;28;20106;-75
2022/10/07 03:27:09;;;;;;;0.10;0.10;;;;;;;5.10;100.00;97590.44;5043618;28;20123;-76
2022/10/07 03:29:57;;;;;;;0.00;0.00;;;;;;;5.09;100.00;97591.44;5029457;28;20139;-72
2022/10/07 03:32:43;;;;;;;0.10;0.10;;;;;;;5.10;100.00;97588.59;5047437;28;20044;-72
2022/10/07 03:35:29;;;;;;;0.10;0.10;;;;;;;5.13;100.00;97596.19;5039625;28;20496;-73
2022/10/07 03:38:15;;;;;;;0.28;0.10;;;;;;;5.07;100.00;97590.81;5013756;28;20048;-73
2022/10/07 03:41:03;;;;;;;0.10;0.10;;;;;;;5.02;100.00;97584.22;5041401;28;20052;-73
2022/10/07 03:43:49;;;;;;;0.10;0.10;;;;;;;5.03;100.00;97582.38;5027974;28;20537;-72
2022/10/07 03:46:40;;;;;;;0.10;0.10;;;;;;;5.00;100.00;97582.78;5017139;28;20041;-73
2022/10/07 03:49:26;;;;;;;0.10;0.10;;;;;;;4.96;100.00;97571.69;5043962;28;20048;-73
2022/10/07 03:52:12;;;;;;;0.10;0.10;;;;;;;4.99;100.00;97578.47;5028868;28;20056;-74
2022/10/07 03:54:58;;;;;;;0.25;0.13;;;;;;;5.07;100.00;97577.56;5033402;28;20934;-73
2022/10/07 03:57:52;;;;;;;0.10;0.10;;;;;;;5.07;100.00;97573.06;5042137;28;20128;-73
2022/10/07 04:00:40;;;;;;;0.13;0.13;;;;;;;5.10;100.00;97571.84;5030282;28;20060;-72
2022/10/07 04:03:26;;;;;;;0.10;0.10;;;;;;;5.01;100.00;97571.97;5040750;28;20416;-73
2022/10/07 04:06:12;;;;;;;0.10;0.10;;;;;;;5.04;100.00;97573.41;5035139;28;20041;-73
2022/10/07 04:08:59;;;;;;;0.10;0.10;;;;;;;4.99;100.00;97565.22;5034156;28;20071;-72
2022/10/07 04:11:44;;;;;;;0.10;0.10;;;;;;;5.01;100.00;97561.34;5046872;28;20528;-74
2022/10/07 04:14:31;;;;;;;0.13;0.13;;;;;;;5.04;100.00;97563.63;5032848;28;20362;-75
2022/10/07 04:17:22;;;;;;;0.10;0.10;;;;;;;5.01;100.00;97565.84;5044696;28;20036;-74
2022/10/07 04:20:09;;;;;;;0.13;0.13;;;;;;;5.01;100.00;97555.22;5047340;28;20399;-75
2022/10/07 04:22:55;;;;;;;0.10;0.10;;;;;;;4.98;100.00;97559.09;5038044;28;20041;-74
2022/10/07 04:25:46;;;;;;;0.45;0.20;;;;;;;5.03;100.00;97561.16;5038743;28;20056;-75
2022/10/07 04:28:38;;;;;;;0.10;0.10;;;;;;;4.94;100.00;97557.81;5038499;28;20119;-74
2022/10/07 04:31:30;;;;;;;0.10;0.10;;;;;;;4.91;100.00;97547.56;5031104;28;20223;-75
2022/10/07 04:34:21;;;;;;;0.10;0.10;;;;;;;4.91;100.00;97547.56;5033927;28;20048;-74
2022/10/07 04:37:09;;;;;;;0.15;0.10;;;;;;;4.91;100.00;97541.44;5046052;28;20075;-75
2022/10/07 04:39:55;;;;;;;0.15;0.15;;;;;;;4.88;100.00;97539.97;5032249;28;20044;-74
2022/10/07 04:45:47;;;;;;;0.22;0.10;;;;;;;4.88;100.00;97547.94;5034860;28;20071;-74
2022/10/07 04:48:34;;;;;;;0.10;0.10;;;;;;;4.89;100.00;97530.19;5031238;28;20202;-75
2022/10/07 04:51:21;;;;;;;0.10;0.10;;;;;;;4.90;100.00;97535.31;5035153;28;20473;-75
2022/10/07 04:54:09;;;;;;;0.10;0.10;;;;;;;4.93;100.00;97539.44;5047285;28;20052;-75
2022/10/07 04:57:03;;;;;;;0.10;0.10;;;;;;;4.93;100.00;97540.25;5030436;28;20124;-74
2022/10/07 04:59:50;;;;;;;0.22;0.20;;;;;;;4.84;100.00;97538.72;5045800;28;20546;-74
2022/10/07 05:02:40;;;;;;;0.10;0.10;;;;;;;4.91;100.00;97541.44;5035394;28;20285;-73
2022/10/07 05:05:26;;;;;;;0.10;0.10;;;;;;;4.94;100.00;97531.28;5032891;28;20092;-74
2022/10/07 05:08:14;;;;;;;0.10;0.10;;;;;;;4.84;100.00;97541.38;5029235;28;20037;-74
2022/10/07 05:11:02;;;;;;;0.20;0.10;;;;;;;4.80;100.00;97529.47;5037416;28;20044;-73
2022/10/07 05:13:52;;;;;;;0.10;0.10;;;;;;;4.77;100.00;97535.16;5031525;28;20111;-74
2022/10/07 05:16:40;;;;;;;0.10;0.10;;;;;;;4.70;100.00;97523.66;5034355;28;20037;-74
2022/10/07 05:19:27;;;;;;;0.10;0.10;;;;;;;4.64;100.00;97532.34;5048179;28;20056;-75
2022/10/07 05:22:13;;;;;;;0.10;0.10;;;;;;;4.62;100.00;97527.22;5036630;28;20040;-75
2022/10/07 05:25:00;;;;;;;0.10;0.10;;;;;;;4.65;100.00;97526.84;5045865;28;20132;-74
2022/10/07 05:27:50;;;;;;;0.10;0.10;;;;;;;4.62;100.00;97526.41;5035403;28;20132;-74
2022/10/07 05:30:38;;;;;;;0.20;0.20;;;;;;;4.63;100.00;97523.56;5029224;28;20059;-74
2022/10/07 05:33:23;;;;;;;0.10;0.10;;;;;;;4.65;100.00;97520.72;5043501;28;20036;-74
2022/10/07 05:36:11;;;;;;;0.15;0.10;;;;;;;4.63;100.00;97526.22;5045508;28;20359;-75
2022/10/07 05:38:57;;;;;;;0.10;0.10;;;;;;;4.60;100.00;97533.72;5043473;28;20074;-75
2022/10/07 05:41:46;;;;;;;0.10;0.10;;;;;;;4.62;100.00;97527.22;5030515;28;20033;-73
2022/10/07 05:44:36;;;;;;;0.10;0.10;;;;;;;4.61;100.00;97525.59;5018043;28;20041;-74
2022/10/07 05:47:23;;;;;;;0.10;0.10;;;;;;;4.62;100.00;97521.91;5032292;28;20564;-75
2022/10/07 05:50:11;;;;;;;0.10;0.10;;;;;;;4.58;100.00;97517.16;5032904;28;20040;-75
2022/10/07 05:52:57;;;;;;;0.10;0.10;;;;;;;4.68;100.00;97520.38;5031267;28;20040;-74
2022/10/07 05:55:43;;;;;;;0.20;0.20;;;;;;;4.69;100.00;97509.56;5031466;28;20580;-74
2022/10/07 05:58:29;;;;;;;0.20;0.13;;;;;;;4.77;100.00;97507.81;5035025;28;20738;-74
2022/10/07 06:01:18;;;;;;;0.20;0.20;;;;;;;4.81;100.00;97517.03;5029899;28;20441;-74
2022/10/07 06:04:06;;;;;;;0.10;0.10;;;;;;;4.84;100.00;97508.72;5030246;28;20289;-74
2022/10/07 06:06:53;;;;;;;0.10;0.10;;;;;;;4.91;100.00;97505.13;5033030;28;20569;-74
2022/10/07 06:15:49;;;;;;;0.10;0.10;;;;;;;5.13;100.00;97494.53;5032054;28;20038;-74
2022/10/07 06:18:35;;;;;;;0.10;0.10;;;;;;;5.21;100.00;97499.72;5045765;28;20404;-74
2022/10/07 06:21:27;;;;;;;0.10;0.10;;;;;;;5.30;100.00;97503.91;5046820;28;20041;-74
2022/10/07 06:24:17;;;;;;;0.10;0.10;;;;;;;5.36;100.00;97500.47;5027959;28;20044;-74
2022/10/07 06:27:03;;;;;;;0.10;0.10;;;;;;;5.35;100.00;97495.34;5031187;28;20561;-74
2022/10/07 06:29:50;;;;;;;0.10;0.10;;;;;;;5.47;100.00;97499.97;5029317;28;20077;-74
2022/10/07 06:32:36;;;;;;;0.70;0.20;;;;;;;5.55;100.00;97497.19;5044396;28;20433;-74
2022/10/07 06:35:22;;;;;;;0.63;0.32;;;;;;;5.68;100.00;97504.44;5027258;28;20400;-74
2022/10/07 06:38:11;;;;;;;0.20;0.20;;;;;;;5.76;100.00;97499.00;5022180;28;20138;-75
2022/10/07 06:40:58;;;;;;;0.22;0.20;;;;;;;5.88;100.00;97508.06;5041620;28;20287;-74
2022/10/07 06:43:47;;;;;;;0.10;0.10;;;;;;;5.98;100.00;97501.63;5041669;28;20488;-75
2022/10/07 06:46:34;;;;;;;0.10;0.10;;;;;;;6.10;100.00;97508.88;5029931;28;20305;-74
2022/10/07 06:49:20;;;;;;;0.10;0.10;;;;;;;6.19;100.00;97506.06;5043652;28;20516;-74
2022/10/07 06:52:06;;;;;;;0.10;0.10;;;;;;;6.32;100.00;97504.31;5034052;28;20044;-75
2022/10/07 06:54:52;;;;;;;0.30;0.20;;;;;;;6.41;100.00;97503.13;5030867;28;20041;-74
2022/10/07 06:57:38;;;;;;;0.15;0.15;;;;;;;6.54;100.00;97512.19;5044196;28;20574;-73
2022/10/07 07:00:24;;;;;;;0.10;0.10;;;;;;;6.64;100.00;97505.50;5034065;28;20569;-75
2022/10/07 07:03:14;;;;;;;0.10;0.10;;;;;;;6.75;100.00;97504.09;5045371;28;20390;-74
2022/10/07 07:06:01;;;;;;;0.10;0.10;;;;;;;6.80;100.00;97496.34;5045362;28;20404;-73
2022/10/07 07:08:54;;;;;;;0.20;0.20;;;;;;;6.86;100.00;97500.88;5034540;28;20105;-75
2022/10/07 07:11:42;;;;;;;0.10;0.10;;;;;;;7.00;100.00;97507.03;5030577;28;20029;-73
2022/10/07 07:14:38;;;;;;;0.20;0.20;;;;;;;7.12;100.00;97504.63;5042469;28;20043;-74
2022/10/07 07:17:32;;;;;;;0.10;0.10;;;;;;;7.24;100.00;97497.72;5032459;28;20040;-73
2022/10/07 07:20:18;;;;;;;0.10;0.10;;;;;;;7.30;100.00;97494.22;5026579;28;20076;-73
2022/10/07 07:23:06;;;;;;;0.20;0.20;;;;;;;7.41;100.00;97496.28;5042968;28;20384;-73
2022/10/07 07:25:52;;;;;;;0.15;0.10;;;;;;;7.48;100.00;97494.47;5044931;28;20051;-75
2022/10/07 07:28:38;;;;;;;0.10;0.10;;;;;;;7.60;100.00;97501.84;5042807;28;20036;-73
2022/10/07 07:31:27;;;;;;;0.10;0.10;;;;;;;7.66;100.00;97495.69;5033222;28;20495;-74
2022/10/07 07:34:13;;;;;;;0.17;0.17;;;;;;;7.74;100.00;97503.47;5025688;28;20128;-73
2022/10/07 07:37:01;;;;;;;0.22;0.20;;;;;;;7.86;100.00;97498.34;5034614;28;20068;-74
2022/10/07 07:39:53;;;;;;;0.20;0.20;;;;;;;7.95;100.00;97497.94;5044993;28;20143;-75
2022/10/07 07:42:39;;;;;;;0.22;0.20;;;;;;;8.00;100.00;97492.78;5034593;28;20187;-74
2022/10/07 07:45:25;;;;;;;0.17;0.10;;;;;;;8.10;100.00;97498.53;5024474;28;20053;-73
2022/10/07 07:48:12;;;;;;;0.38;0.20;;;;;;;8.20;100.00;97492.78;5046520;28;20059;-75
2022/10/07 07:50:59;;;;;;;0.10;0.10;;;;;;;8.32;100.00;97490.28;5044400;28;20051;-74
2022/10/07 07:53:48;;;;;;;0.10;0.10;;;;;;;8.39;100.00;97485.78;5033130;28;20040;-75
2022/10/07 07:56:34;;;;;;;0.17;0.10;;;;;;;8.42;100.00;97487.22;5042339;28;20123;-75
2022/10/07 07:59:24;;;;;;;0.10;0.10;;;;;;;8.56;100.00;97483.47;5033425;28;20044;-74
2022/10/07 08:02:12;;;;;;;0.20;0.20;;;;;;;8.67;100.00;97487.34;5035258;28;20037;-75
2022/10/07 08:05:00;;;;;;;0.10;0.10;;;;;;;8.73;100.00;97486.50;5033615;28;20358;-75
2022/10/07 08:07:46;;;;;;;0.10;0.10;;;;;;;8.90;100.00;97479.66;5035816;28;20115;-75
2022/10/07 08:10:32;;;;;;;0.10;0.10;;;;;;;9.03;100.00;97465.44;5029611;28;20584;-75
2022/10/07 08:13:18;;;;;;;0.10;0.10;;;;;;;9.18;100.00;97463.25;5046705;28;20044;-75
2022/10/07 08:16:05;;;;;;;0.20;0.17;;;;;;;9.37;100.00;97467.66;5036762;28;20531;-76
2022/10/07 08:18:52;;;;;;;0.10;0.10;;;;;;;9.58;100.00;97471.84;5034253;28;20045;-76
2022/10/07 08:21:38;;;;;;;0.10;0.10;;;;;;;9.75;100.00;97462.22;5042808;28;20298;-74
2022/10/07 08:24:26;;;;;;;0.00;0.00;;;;;;;9.93;100.00;97460.63;5049016;28;21258;-75
2022/10/07 08:27:12;;;;;;;0.10;0.10;;;;;;;10.02;100.00;97459.31;5031157;28;20500;-75
2022/10/07 08:29:58;;;;;;;0.10;0.10;;;;;;;10.18;100.00;97466.75;5046713;28;20128;-75
2022/10/07 08:32:44;;;;;;;0.10;0.10;;;;;;;10.34;100.00;97462.72;5039588;28;20515;-74
2022/10/07 08:35:30;;;;;;;0.10;0.10;;;;;;;10.48;100.00;97466.06;5045512;28;20051;-75
2022/10/07 08:38:16;;;;;;;0.10;0.10;;;;;;;10.58;100.00;97466.34;5046805;28;20075;-75
2022/10/07 08:41:08;;;;;;;0.10;0.10;;;;;;;10.67;100.00;97461.53;5031674;28;20132;-74
2022/10/07 08:43:55;;;;;;;0.25;0.20;;;;;;;10.72;100.00;97451.78;5046145;28;20040;-75
2022/10/07 08:46:53;;;;;;;0.30;0.20;;;;;;;10.83;100.00;97459.06;5044109;28;20040;-75
2022/10/07 08:50:22;;;;;;;0.13;0.13;;;;;;;10.99;100.00;97454.94;5046875;28;20618;-74
2022/10/07 08:53:16;;;;;;;0.10;0.10;;;;;;;11.13;100.00;97444.88;5014801;28;20032;-75
2022/10/07 08:56:15;;;;;;;0.15;0.10;;;;;;;11.27;100.00;97443.59;5042392;28;20048;-74
2022/10/07 08:59:08;;;;;;;0.20;0.10;;;;;;;11.34;100.00;97433.63;5043386;28;20040;-75
2022/10/07 09:02:21;;;;;;;0.10;0.10;;;;;;;11.51;100.00;97432.94;5031477;28;20079;-74
2022/10/07 09:05:25;;;;;;;0.10;0.10;;;;;;;11.58;100.00;97430.97;5044836;28;20141;-75
2022/10/07 09:08:22;;;;;;;0.10;0.10;;;;;;;11.73;100.00;97428.66;5042833;28;20091;-75
2022/10/07 09:11:15;;;;;;;0.10;0.10;;;;;;;11.85;100.00;97432.22;5044630;28;20520;-75
2022/10/07 09:14:16;;;;;;;0.10;0.10;;;;;;;11.96;100.00;97439.44;5045847;28;20553;-75
2022/10/07 09:17:09;;;;;;;0.10;0.10;;;;;;;12.04;100.00;97432.91;5047047;28;20241;-76
2022/10/07 09:20:15;;;;;;;0.20;0.10;;;;;;;12.16;100.00;97427.53;5044155;28;20383;-74
2022/10/07 09:23:03;;;;;;;0.10;0.10;;;;;;;12.15;100.00;97428.59;5045725;28;20029;-75
2022/10/07 09:25:50;;;;;;;0.10;0.10;;;;;;;12.22;100.00;97421.25;5049155;28;20564;-74
2022/10/07 09:28:36;;;;;;;0.10;0.10;;;;;;;12.42;100.00;97423.53;5045855;28;20093;-75
2022/10/07 09:31:23;;;;;;;0.10;0.10;;;;;;;12.55;100.00;97413.34;5046106;28;20507;-76
2022/10/07 09:34:23;;;;;;;0.10;0.10;;;;;;;12.73;100.00;97419.59;5043500;28;20053;-76
2022/10/07 09:37:22;;;;;;;0.10;0.10;;;;;;;12.82;100.00;97404.72;5045461;28;20045;-76
2022/10/07 09:40:29;;;;;;;0.17;0.17;;;;;;;13.01;100.00;97408.88;5027693;28;20055;-75
2022/10/07 09:43:17;;;;;;;0.13;0.13;;;;;;;13.29;100.00;97399.16;5042294;28;20143;-76
2022/10/07 09:46:03;;;;;;;0.20;0.20;;;;;;;13.58;100.00;97399.91;5044995;28;20458;-75
2022/10/07 09:48:53;;;;;;;0.20;0.20;;;;;;;13.86;100.00;97389.06;5047248;28;20469;-76
2022/10/07 09:51:40;;;;;;;0.20;0.20;;;;;;;14.11;100.00;97385.91;5046439;28;20323;-75
2022/10/07 09:54:27;;;;;;;0.20;0.20;;;;;;;14.67;100.00;97383.97;5045937;28;20041;-76
2022/10/07 09:57:30;;;;;;;0.20;0.20;;;;;;;15.81;97.35;97391.00;5043751;28;20154;-76
2022/10/07 10:00:24;;;;;;;0.22;0.20;;;;;;;17.55;86.71;97385.16;5044643;28;20472;-75
2022/10/07 10:03:11;;;;;;;0.20;0.20;;;;;;;19.68;71.89;97373.78;5044903;28;20487;-75
2022/10/07 10:06:03;;;;;;;0.20;0.20;;;;;;;21.32;55.89;97377.09;5042807;28;20476;-76
2022/10/07 10:08:55;;;;;;;0.30;0.30;;;;;;;22.41;47.98;97366.75;5037589;28;20203;-75
2022/10/07 10:11:41;;;;;;;0.20;0.20;;;;;;;23.58;43.19;97364.25;5043865;28;20618;-76
2022/10/07 10:14:39;;;;;;;0.20;0.20;;;;;;;24.93;39.24;97360.06;5044050;28;20049;-76
2022/10/07 10:17:34;;;;;;;0.20;0.20;;;;;;;25.57;35.56;97356.75;5044641;28;20045;-76
2022/10/07 10:20:23;;;;;;;0.20;0.20;;;;;;;26.60;35.41;97343.88;5042686;28;20048;-76
2022/10/07 10:23:32;;;;;;;0.20;0.20;;;;;;;28.11;31.17;97340.13;5046503;28;20088;-77
2022/10/07 10:26:24;;;;;;;0.20;0.20;;;;;;;28.77;30.28;97331.69;5047054;28;20040;-77
2022/10/07 10:29:35;;;;;;;0.20;0.20;;;;;;;29.48;30.11;97317.31;5047370;28;20036;-77
2022/10/07 10:32:42;;;;;;;0.17;0.17;;;;;;;29.56;29.22;97316.38;5046010;28;20511;-77
2022/10/07 10:35:30;;;;;;;0.20;0.20;;;;;;;30.76;28.85;97306.88;5050384;28;20223;-76
2022/10/07 10:38:44;;;;;;;0.10;0.10;;;;;;;31.59;25.30;97296.41;5050172;28;20485;-78
2022/10/07 10:41:45;;;;;;;0.20;0.20;;;;;;;32.15;27.57;97298.66;5020592;28;20546;-76
2022/10/07 10:44:46;;;;;;;;;;;;;;;30.91;25.48;97296.16;5048112;28;20033;-76
2022/10/07 10:48:01;;;;;;;0.10;0.10;;;;;;;31.85;24.69;97290.22;5051939;28;20008;-76
2022/10/07 10:50:54;;;;;;;0.10;0.10;;;;;;;32.79;24.15;97279.50;5034532;28;20044;-76
2022/10/07 10:54:00;;;;;;;0.10;0.10;;;;;;;33.38;23.40;97277.94;5045822;28;20404;-76
2022/10/07 10:57:14;;;;;;;0.10;0.10;;;;;;;34.31;22.73;97265.03;5046692;28;20043;-76
2022/10/07 11:00:09;;;;;;;0.10;0.10;;;;;;;33.87;23.21;97263.03;5046871;28;20047;-76
2022/10/07 11:03:34;;;;;;;0.13;0.13;;;;;;;31.99;24.18;97262.00;5048832;28;20044;-75
2022/10/07 11:06:22;;;;;;;0.10;0.10;;;;;;;34.31;24.95;97265.03;5041695;28;20063;-76
2022/10/07 11:09:47;;;;;;;0.10;0.10;;;;;;;34.47;21.17;97254.47;5045394;28;20060;-76
2022/10/07 11:12:38;;;;;;;0.10;0.10;;;;;;;31.87;24.43;97243.63;5042198;28;20387;-76
2022/10/07 11:15:29;;;;;;;0.10;0.10;;;;;;;31.82;23.58;97241.16;5042753;28;20137;-76
2022/10/07 11:18:36;;;;;;;0.10;0.10;;;;;;;33.60;22.69;97237.38;5044031;28;20345;-77
2022/10/07 11:21:36;;;;;;;0.10;0.10;;;;;;;33.97;21.42;97228.25;4694532;28;10000904;-75
2022/10/07 11:24:35;;;;;;;0.10;0.10;;;;;;;31.47;23.03;97232.19;5043699;28;20114;-76
2022/10/07 11:27:24;;;;;;;0.10;0.10;;;;;;;30.04;24.39;97222.66;5046302;28;20048;-77
2022/10/07 11:30:20;;;;;;;0.10;0.10;;;;;;;29.70;23.73;97213.94;5045197;28;20666;-76
2022/10/07 11:33:22;;;;;;;0.10;0.10;;;;;;;31.97;23.43;97210.97;5044237;28;20082;-76
2022/10/07 11:36:15;;;;;;;0.10;0.10;;;;;;;32.78;21.78;97218.94;5043397;28;20542;-76
2022/10/07 11:39:00;;;;;;;0.10;0.10;;;;;;;31.29;23.93;97210.53;5045870;28;20330;-76
2022/10/07 11:41:52;;;;;;;0.10;0.10;;;;;;;31.95;24.21;97208.56;5025136;28;20135;-76
2022/10/07 11:44:49;;;;;;;0.10;0.10;;;;;;;32.71;21.42;97201.03;5049876;28;20047;-76
2022/10/07 11:47:42;;;;;;;0.08;0.08;;;;;;;35.04;20.48;97188.13;5047101;28;20363;-76
2022/10/07 11:50:36;;;;;;;0.10;0.10;;;;;;;36.53;18.71;97173.59;5042085;28;20036;-77
2022/10/07 11:53:27;;;;;;;0.10;0.10;;;;;;;37.49;19.48;97168.81;5048758;28;20594;-76
2022/10/07 11:56:21;;;;;;;0.10;0.10;;;;;;;32.57;21.38;97170.38;5045083;28;20253;-77
2022/10/07 11:59:34;;;;;;;0.10;0.10;;;;;;;34.85;19.81;97155.03;5046624;28;20044;-75
2022/10/07 12:02:29;;;;;;;0.10;0.10;;;;;;;36.75;18.99;97160.38;5030558;28;20044;-75
2022/10/07 12:05:35;;;;;;;0.10;0.10;;;;;;;34.66;19.04;97164.50;5045734;28;20070;-76
2022/10/07 12:08:30;;;;;;;0.10;0.10;;;;;;;35.22;18.67;97146.47;5046456;28;20036;-75
2022/10/07 12:11:16;;;;;;;0.10;0.10;;;;;;;34.43;18.88;97150.88;5031537;28;20281;-77
2022/10/07 12:14:31;;;;;;;0.10;0.10;;;;;;;34.20;18.51;97136.44;5047946;28;20373;-76
2022/10/07 12:17:22;;;;;;;0.10;0.10;;;;;;;35.17;18.83;97124.59;5044890;28;20086;-77
2022/10/07 12:20:44;;;;;;;0.10;0.10;;;;;;;33.87;19.19;97123.50;5048441;28;20254;-76
2022/10/07 12:23:36;;;;;;;0.10;0.10;;;;;;;35.52;17.98;97120.31;5043691;28;20555;-76
2022/10/07 12:26:30;;;;;;;0.10;0.10;;;;;;;35.36;17.22;97112.31;5047880;28;20424;-76
2022/10/07 12:29:22;;;;;;;0.10;0.10;;;;;;;34.28;18.77;97115.84;5048884;28;20112;-77
2022/10/07 12:32:45;;;;;;;0.10;0.10;;;;;;;34.48;18.86;97110.84;5032100;28;20451;-76
2022/10/07 12:35:34;;;;;;;0.10;0.10;;;;;;;37.65;17.65;97096.53;5050730;28;20040;-75
2022/10/07 12:38:28;;;;;;;0.10;0.10;;;;;;;38.91;15.72;97086.47;5049648;28;20054;-75
2022/10/07 12:41:23;;;;;;;0.10;0.10;;;;;;;39.61;15.63;97082.28;5017815;28;20056;-77
2022/10/07 12:44:14;;;;;;;0.10;0.10;;;;;;;39.90;16.59;97082.59;5050465;28;20574;-75
2022/10/07 12:47:09;;;;;;;0.10;0.10;;;;;;;34.56;18.02;97085.47;5047492;28;20036;-77
2022/10/07 12:50:01;;;;;;;0.10;0.10;;;;;;;34.01;18.81;97077.22;5048219;28;20045;-77
2022/10/07 12:52:55;;;;;;;0.10;0.10;;;;;;;33.64;20.10;97076.53;5047448;28;20082;-76
2022/10/07 12:55:47;;;;;;;0.10;0.10;;;;;;;33.31;19.25;97085.72;5049407;28;20040;-76
2022/10/07 13:02:10;;;;;;;0.10;0.10;;;;;;;33.46;18.16;97068.06;5052482;28;20442;-76
2022/10/07 13:05:15;;;;;;;;;;;;;;;31.74;18.71;97069.84;5050118;28;20067;-76
2022/10/07 13:08:22;;;;;;;0.10;0.10;;;;;;;33.85;18.86;97040.59;5053350;28;19939;-77
2022/10/07 13:11:46;;;;;;;0.10;0.10;;;;;;;35.45;16.91;97046.00;5048810;28;20044;-77
2022/10/07 13:14:41;;;;;;;0.10;0.10;;;;;;;34.59;17.11;97039.44;5050833;28;20087;-75
2022/10/07 13:17:40;;;;;;;0.10;0.10;;;;;;;32.80;17.93;97045.59;5048106;28;20943;-76
2022/10/07 13:20:34;;;;;;;0.08;0.08;;;;;;;31.25;19.47;97040.25;5049835;28;20440;-75
2022/10/07 13:23:20;;;;;;;0.15;0.15;;;;;;;30.47;20.47;97034.81;5045991;28;20077;-76
2022/10/07 13:26:06;;;;;;;0.10;0.10;;;;;;;32.91;18.70;97027.13;5046601;28;20120;-77
2022/10/07 13:28:54;;;;;;;0.10;0.10;;;;;;;33.13;18.44;97016.25;5050076;28;20036;-77
2022/10/07 13:31:40;;;;;;;0.10;0.10;;;;;;;35.93;16.85;97017.72;5038409;28;20131;-76
2022/10/07 13:34:27;;;;;;;0.00;0.00;;;;;;;34.15;17.95;97009.88;5047967;28;20598;-76
2022/10/07 13:37:29;;;;;;;0.00;0.00;;;;;;;34.30;17.42;97002.41;5046569;28;20033;-77
2022/10/07 13:40:27;;;;;;;0.10;0.10;;;;;;;34.43;16.34;97000.09;5048279;28;20052;-77
2022/10/07 13:43:13;;;;;;;0.00;0.00;;;;;;;35.03;17.16;96994.72;5021417;28;20040;-77